sensor_id;sensor_type;location;lat;lon;timestamp;temperature;humidity
19622;DHT22;9958;33.196;-97.114;2022-12-18T00:01:30;7.30;61.60
19622;DHT22;9958;33.196;-97.114;2022-12-18T00:04:07;7.20;62.10
19622;DHT22;9958;33.196;-97.114;2022-12-18T00:06:35;7.10;62.70
19622;DHT22;9958;33.196;-97.114;2022-12-18T00:09:04;7.00;62.50
19622;DHT22;9958;33.196;-97.114;2022-12-18T00:11:32;6.90;62.10
19622;DHT22;9958;33.196;-97.114;2022-12-18T00:14:00;6.80;62.90
19622;DHT22;9958;33.196;-97.114;2022-12-18T00:16:29;6.70;64.40
19622;DHT22;9958;33.196;-97.114;2022-12-18T00:19:01;6.60;65.20
19622;DHT22;9958;33.196;-97.114;2022-12-18T00:21:30;6.50;65.40
19622;DHT22;9958;33.196;-97.114;2022-12-18T00:24:00;6.40;64.70
19622;DHT22;9958;33.196;-97.114;2022-12-18T00:26:30;6.30;65.00
19622;DHT22;9958;33.196;-97.114;2022-12-18T00:29:00;6.30;64.80
19622;DHT22;9958;33.196;-97.114;2022-12-18T00:31:28;6.20;64.00
19622;DHT22;9958;33.196;-97.114;2022-12-18T00:33:57;6.10;64.80
19622;DHT22;9958;33.196;-97.114;2022-12-18T00:36:30;6.10;65.30
19622;DHT22;9958;33.196;-97.114;2022-12-18T00:39:00;6.00;65.20
19622;DHT22;9958;33.196;-97.114;2022-12-18T00:41:28;5.90;65.10
19622;DHT22;9958;33.196;-97.114;2022-12-18T00:44:15;5.90;65.30
19622;DHT22;9958;33.196;-97.114;2022-12-18T00:46:44;5.80;64.90
19622;DHT22;9958;33.196;-97.114;2022-12-18T00:49:13;5.80;65.40
19622;DHT22;9958;33.196;-97.114;2022-12-18T00:51:43;5.70;66.60
19622;DHT22;9958;33.196;-97.114;2022-12-18T00:54:11;5.60;68.20
19622;DHT22;9958;33.196;-97.114;2022-12-18T00:56:40;5.60;68.80
19622;DHT22;9958;33.196;-97.114;2022-12-18T00:59:08;5.50;69.70
19622;DHT22;9958;33.196;-97.114;2022-12-18T01:01:36;5.50;71.90
19622;DHT22;9958;33.196;-97.114;2022-12-18T01:04:05;5.40;71.60
19622;DHT22;9958;33.196;-97.114;2022-12-18T01:06:34;5.40;72.30
19622;DHT22;9958;33.196;-97.114;2022-12-18T01:09:04;5.30;71.70
19622;DHT22;9958;33.196;-97.114;2022-12-18T01:11:32;5.30;71.20
19622;DHT22;9958;33.196;-97.114;2022-12-18T01:14:00;5.20;71.30
19622;DHT22;9958;33.196;-97.114;2022-12-18T01:16:29;5.10;71.50
19622;DHT22;9958;33.196;-97.114;2022-12-18T01:19:00;5.10;72.20
19622;DHT22;9958;33.196;-97.114;2022-12-18T01:21:28;5.00;72.90
19622;DHT22;9958;33.196;-97.114;2022-12-18T01:23:57;5.00;73.20
19622;DHT22;9958;33.196;-97.114;2022-12-18T01:26:27;4.90;73.20
19622;DHT22;9958;33.196;-97.114;2022-12-18T01:28:57;4.90;74.50
19622;DHT22;9958;33.196;-97.114;2022-12-18T01:31:26;4.90;74.90
19622;DHT22;9958;33.196;-97.114;2022-12-18T01:33:55;4.80;73.80
19622;DHT22;9958;33.196;-97.114;2022-12-18T01:36:25;4.80;73.00
19622;DHT22;9958;33.196;-97.114;2022-12-18T01:38:54;4.80;74.10
19622;DHT22;9958;33.196;-97.114;2022-12-18T01:41:24;4.70;74.60
19622;DHT22;9958;33.196;-97.114;2022-12-18T01:43:55;4.70;75.40
19622;DHT22;9958;33.196;-97.114;2022-12-18T01:46:25;4.70;74.90
19622;DHT22;9958;33.196;-97.114;2022-12-18T01:48:56;4.60;74.30
19622;DHT22;9958;33.196;-97.114;2022-12-18T01:51:26;4.60;74.30
19622;DHT22;9958;33.196;-97.114;2022-12-18T01:53:55;4.60;74.10
19622;DHT22;9958;33.196;-97.114;2022-12-18T01:56:23;4.50;73.80
19622;DHT22;9958;33.196;-97.114;2022-12-18T01:58:58;4.50;73.90
19622;DHT22;9958;33.196;-97.114;2022-12-18T02:01:29;4.50;76.20
19622;DHT22;9958;33.196;-97.114;2022-12-18T02:04:20;4.50;77.60
19622;DHT22;9958;33.196;-97.114;2022-12-18T02:06:52;4.50;78.10
19622;DHT22;9958;33.196;-97.114;2022-12-18T02:09:25;4.40;78.10
19622;DHT22;9958;33.196;-97.114;2022-12-18T02:12:02;4.40;78.30
19622;DHT22;9958;33.196;-97.114;2022-12-18T02:14:38;4.30;77.40
19622;DHT22;9958;33.196;-97.114;2022-12-18T02:17:12;4.30;76.00
19622;DHT22;9958;33.196;-97.114;2022-12-18T02:19:58;4.30;76.00
19622;DHT22;9958;33.196;-97.114;2022-12-18T02:22:36;4.30;76.90
19622;DHT22;9958;33.196;-97.114;2022-12-18T02:25:18;4.20;76.60
19622;DHT22;9958;33.196;-97.114;2022-12-18T02:27:51;4.20;76.80
19622;DHT22;9958;33.196;-97.114;2022-12-18T02:30:21;4.20;77.30
19622;DHT22;9958;33.196;-97.114;2022-12-18T02:32:52;4.10;77.60
19622;DHT22;9958;33.196;-97.114;2022-12-18T02:35:23;4.10;78.70
19622;DHT22;9958;33.196;-97.114;2022-12-18T02:37:53;4.10;79.10
19622;DHT22;9958;33.196;-97.114;2022-12-18T02:40:23;4.00;79.70
19622;DHT22;9958;33.196;-97.114;2022-12-18T02:42:53;4.00;79.60
19622;DHT22;9958;33.196;-97.114;2022-12-18T02:45:22;4.00;79.30
19622;DHT22;9958;33.196;-97.114;2022-12-18T02:47:50;3.90;78.90
19622;DHT22;9958;33.196;-97.114;2022-12-18T02:50:25;3.90;79.80
19622;DHT22;9958;33.196;-97.114;2022-12-18T02:53:03;3.90;80.80
19622;DHT22;9958;33.196;-97.114;2022-12-18T02:55:43;3.90;80.80
19622;DHT22;9958;33.196;-97.114;2022-12-18T02:58:19;3.80;80.20
19622;DHT22;9958;33.196;-97.114;2022-12-18T03:00:53;3.80;79.90
19622;DHT22;9958;33.196;-97.114;2022-12-18T03:03:28;3.80;80.70
19622;DHT22;9958;33.196;-97.114;2022-12-18T03:06:03;3.70;80.60
19622;DHT22;9958;33.196;-97.114;2022-12-18T03:08:36;3.70;80.10
19622;DHT22;9958;33.196;-97.114;2022-12-18T03:11:09;3.70;81.50
19622;DHT22;9958;33.196;-97.114;2022-12-18T03:13:43;3.70;81.80
19622;DHT22;9958;33.196;-97.114;2022-12-18T03:16:17;3.70;81.80
19622;DHT22;9958;33.196;-97.114;2022-12-18T03:18:48;3.60;81.40
19622;DHT22;9958;33.196;-97.114;2022-12-18T03:21:21;3.60;81.70
19622;DHT22;9958;33.196;-97.114;2022-12-18T03:23:51;3.60;82.20
19622;DHT22;9958;33.196;-97.114;2022-12-18T03:26:23;3.60;83.70
19622;DHT22;9958;33.196;-97.114;2022-12-18T03:28:57;3.60;83.90
19622;DHT22;9958;33.196;-97.114;2022-12-18T03:31:29;3.50;83.80
19622;DHT22;9958;33.196;-97.114;2022-12-18T03:34:01;3.60;83.60
19622;DHT22;9958;33.196;-97.114;2022-12-18T03:36:30;3.50;84.30
19622;DHT22;9958;33.196;-97.114;2022-12-18T03:38:58;3.50;85.90
19622;DHT22;9958;33.196;-97.114;2022-12-18T03:41:31;3.40;85.70
19622;DHT22;9958;33.196;-97.114;2022-12-18T03:44:09;3.40;84.80
19622;DHT22;9958;33.196;-97.114;2022-12-18T03:46:42;3.40;85.30
19622;DHT22;9958;33.196;-97.114;2022-12-18T03:49:15;3.40;85.90
19622;DHT22;9958;33.196;-97.114;2022-12-18T03:51:50;3.40;85.60
19622;DHT22;9958;33.196;-97.114;2022-12-18T03:54:20;3.30;85.40
19622;DHT22;9958;33.196;-97.114;2022-12-18T03:56:53;3.30;85.50
19622;DHT22;9958;33.196;-97.114;2022-12-18T03:59:25;3.30;85.80
19622;DHT22;9958;33.196;-97.114;2022-12-18T04:01:57;3.30;85.00
19622;DHT22;9958;33.196;-97.114;2022-12-18T04:04:28;3.30;85.00
19622;DHT22;9958;33.196;-97.114;2022-12-18T04:06:57;3.30;84.70
19622;DHT22;9958;33.196;-97.114;2022-12-18T04:09:26;3.20;84.70
19622;DHT22;9958;33.196;-97.114;2022-12-18T04:11:55;3.20;84.40
19622;DHT22;9958;33.196;-97.114;2022-12-18T04:14:25;3.20;84.50
19622;DHT22;9958;33.196;-97.114;2022-12-18T04:16:53;3.20;84.60
19622;DHT22;9958;33.196;-97.114;2022-12-18T04:19:21;3.20;84.90
19622;DHT22;9958;33.196;-97.114;2022-12-18T04:21:50;3.20;87.10
19622;DHT22;9958;33.196;-97.114;2022-12-18T04:24:18;3.20;88.90
19622;DHT22;9958;33.196;-97.114;2022-12-18T04:26:46;3.20;89.60
19622;DHT22;9958;33.196;-97.114;2022-12-18T04:29:15;3.10;89.30
19622;DHT22;9958;33.196;-97.114;2022-12-18T04:31:45;3.10;89.80
19622;DHT22;9958;33.196;-97.114;2022-12-18T04:34:13;3.10;90.00
19622;DHT22;9958;33.196;-97.114;2022-12-18T04:36:41;3.00;89.00
19622;DHT22;9958;33.196;-97.114;2022-12-18T04:39:10;3.00;88.70
19622;DHT22;9958;33.196;-97.114;2022-12-18T04:41:38;3.00;89.00
19622;DHT22;9958;33.196;-97.114;2022-12-18T04:44:07;3.00;89.80
19622;DHT22;9958;33.196;-97.114;2022-12-18T04:46:36;2.90;89.50
19622;DHT22;9958;33.196;-97.114;2022-12-18T04:49:05;2.90;88.80
19622;DHT22;9958;33.196;-97.114;2022-12-18T04:51:34;2.90;88.90
19622;DHT22;9958;33.196;-97.114;2022-12-18T04:54:02;2.90;88.10
19622;DHT22;9958;33.196;-97.114;2022-12-18T04:56:31;2.90;87.60
19622;DHT22;9958;33.196;-97.114;2022-12-18T04:58:59;2.80;88.00
19622;DHT22;9958;33.196;-97.114;2022-12-18T05:01:28;2.80;88.50
19622;DHT22;9958;33.196;-97.114;2022-12-18T05:03:56;2.80;90.10
19622;DHT22;9958;33.196;-97.114;2022-12-18T05:06:26;2.80;90.00
19622;DHT22;9958;33.196;-97.114;2022-12-18T05:08:54;2.80;88.30
19622;DHT22;9958;33.196;-97.114;2022-12-18T05:11:23;2.80;88.70
19622;DHT22;9958;33.196;-97.114;2022-12-18T05:13:51;2.70;90.30
19622;DHT22;9958;33.196;-97.114;2022-12-18T05:16:19;2.70;90.10
19622;DHT22;9958;33.196;-97.114;2022-12-18T05:18:47;2.60;90.10
19622;DHT22;9958;33.196;-97.114;2022-12-18T05:21:16;2.60;88.60
19622;DHT22;9958;33.196;-97.114;2022-12-18T05:23:46;2.60;87.40
19622;DHT22;9958;33.196;-97.114;2022-12-18T05:26:16;2.50;86.80
19622;DHT22;9958;33.196;-97.114;2022-12-18T05:28:45;2.50;87.40
19622;DHT22;9958;33.196;-97.114;2022-12-18T05:31:14;2.40;87.80
19622;DHT22;9958;33.196;-97.114;2022-12-18T05:33:42;2.30;88.40
19622;DHT22;9958;33.196;-97.114;2022-12-18T05:36:11;2.30;88.70
19622;DHT22;9958;33.196;-97.114;2022-12-18T05:38:39;2.20;89.50
19622;DHT22;9958;33.196;-97.114;2022-12-18T05:41:09;2.20;90.50
19622;DHT22;9958;33.196;-97.114;2022-12-18T05:43:40;2.10;91.10
19622;DHT22;9958;33.196;-97.114;2022-12-18T05:46:11;2.10;91.70
19622;DHT22;9958;33.196;-97.114;2022-12-18T05:48:40;2.00;92.10
19622;DHT22;9958;33.196;-97.114;2022-12-18T05:51:09;1.90;92.00
19622;DHT22;9958;33.196;-97.114;2022-12-18T05:53:38;1.80;91.80
19622;DHT22;9958;33.196;-97.114;2022-12-18T05:56:10;1.80;91.50
19622;DHT22;9958;33.196;-97.114;2022-12-18T05:58:38;1.70;91.80
19622;DHT22;9958;33.196;-97.114;2022-12-18T06:01:09;1.70;92.30
19622;DHT22;9958;33.196;-97.114;2022-12-18T06:03:38;1.70;92.60
19622;DHT22;9958;33.196;-97.114;2022-12-18T06:06:14;1.60;92.50
19622;DHT22;9958;33.196;-97.114;2022-12-18T06:08:42;1.60;93.00
19622;DHT22;9958;33.196;-97.114;2022-12-18T06:11:12;1.50;93.00
19622;DHT22;9958;33.196;-97.114;2022-12-18T06:13:41;1.50;92.60
19622;DHT22;9958;33.196;-97.114;2022-12-18T06:16:09;1.40;92.80
19622;DHT22;9958;33.196;-97.114;2022-12-18T06:18:38;1.40;93.30
19622;DHT22;9958;33.196;-97.114;2022-12-18T06:21:06;1.30;93.90
19622;DHT22;9958;33.196;-97.114;2022-12-18T06:23:35;1.30;94.00
19622;DHT22;9958;33.196;-97.114;2022-12-18T06:26:06;1.30;94.50
19622;DHT22;9958;33.196;-97.114;2022-12-18T06:28:36;1.20;94.40
19622;DHT22;9958;33.196;-97.114;2022-12-18T06:31:05;1.20;94.50
19622;DHT22;9958;33.196;-97.114;2022-12-18T06:33:34;1.20;95.30
19622;DHT22;9958;33.196;-97.114;2022-12-18T06:36:03;1.10;95.40
19622;DHT22;9958;33.196;-97.114;2022-12-18T06:38:33;1.10;95.70
19622;DHT22;9958;33.196;-97.114;2022-12-18T06:41:06;1.10;96.00
19622;DHT22;9958;33.196;-97.114;2022-12-18T06:43:36;1.10;96.60
19622;DHT22;9958;33.196;-97.114;2022-12-18T06:46:05;1.10;97.20
19622;DHT22;9958;33.196;-97.114;2022-12-18T06:48:34;1.10;97.60
19622;DHT22;9958;33.196;-97.114;2022-12-18T06:51:02;1.00;97.90
19622;DHT22;9958;33.196;-97.114;2022-12-18T06:53:32;1.00;97.90
19622;DHT22;9958;33.196;-97.114;2022-12-18T06:56:01;1.00;97.90
19622;DHT22;9958;33.196;-97.114;2022-12-18T06:58:29;1.00;98.30
19622;DHT22;9958;33.196;-97.114;2022-12-18T07:01:02;1.00;99.10
19622;DHT22;9958;33.196;-97.114;2022-12-18T07:03:31;0.90;99.50
19622;DHT22;9958;33.196;-97.114;2022-12-18T07:05:59;0.90;99.80
19622;DHT22;9958;33.196;-97.114;2022-12-18T07:08:29;0.90;99.50
19622;DHT22;9958;33.196;-97.114;2022-12-18T07:10:57;0.90;99.10
19622;DHT22;9958;33.196;-97.114;2022-12-18T07:13:26;0.80;99.10
19622;DHT22;9958;33.196;-97.114;2022-12-18T07:15:54;0.80;99.70
19622;DHT22;9958;33.196;-97.114;2022-12-18T07:18:24;0.80;99.80
19622;DHT22;9958;33.196;-97.114;2022-12-18T07:20:52;0.80;99.50
19622;DHT22;9958;33.196;-97.114;2022-12-18T07:23:21;0.80;99.30
19622;DHT22;9958;33.196;-97.114;2022-12-18T07:25:49;0.70;99.50
19622;DHT22;9958;33.196;-97.114;2022-12-18T07:28:17;0.70;99.90
19622;DHT22;9958;33.196;-97.114;2022-12-18T07:30:45;0.70;99.90
19622;DHT22;9958;33.196;-97.114;2022-12-18T07:33:14;0.70;99.90
19622;DHT22;9958;33.196;-97.114;2022-12-18T07:35:44;0.70;99.90
19622;DHT22;9958;33.196;-97.114;2022-12-18T07:38:12;0.70;99.90
19622;DHT22;9958;33.196;-97.114;2022-12-18T07:40:40;0.60;99.90
19622;DHT22;9958;33.196;-97.114;2022-12-18T07:43:08;0.60;99.90
19622;DHT22;9958;33.196;-97.114;2022-12-18T07:45:37;0.60;99.90
19622;DHT22;9958;33.196;-97.114;2022-12-18T07:48:05;0.60;99.90
19622;DHT22;9958;33.196;-97.114;2022-12-18T07:50:33;0.60;99.90
19622;DHT22;9958;33.196;-97.114;2022-12-18T07:53:03;0.60;99.90
19622;DHT22;9958;33.196;-97.114;2022-12-18T07:55:32;0.60;99.90
19622;DHT22;9958;33.196;-97.114;2022-12-18T07:58:01;0.50;99.90
19622;DHT22;9958;33.196;-97.114;2022-12-18T08:00:30;0.50;99.90
19622;DHT22;9958;33.196;-97.114;2022-12-18T08:02:59;0.50;99.90
19622;DHT22;9958;33.196;-97.114;2022-12-18T08:05:27;0.50;99.90
19622;DHT22;9958;33.196;-97.114;2022-12-18T08:07:56;0.50;99.90
19622;DHT22;9958;33.196;-97.114;2022-12-18T08:10:27;0.50;99.90
19622;DHT22;9958;33.196;-97.114;2022-12-18T08:12:56;0.50;99.90
19622;DHT22;9958;33.196;-97.114;2022-12-18T08:15:24;0.50;99.90
19622;DHT22;9958;33.196;-97.114;2022-12-18T08:17:54;0.40;99.90
19622;DHT22;9958;33.196;-97.114;2022-12-18T08:20:24;0.40;99.90
19622;DHT22;9958;33.196;-97.114;2022-12-18T08:22:52;0.40;99.90
19622;DHT22;9958;33.196;-97.114;2022-12-18T08:25:21;0.40;99.90
19622;DHT22;9958;33.196;-97.114;2022-12-18T08:27:51;0.40;99.90
19622;DHT22;9958;33.196;-97.114;2022-12-18T08:30:19;0.40;99.90
19622;DHT22;9958;33.196;-97.114;2022-12-18T08:32:49;0.40;99.90
19622;DHT22;9958;33.196;-97.114;2022-12-18T08:35:19;0.40;99.90
19622;DHT22;9958;33.196;-97.114;2022-12-18T08:37:47;0.40;99.90
19622;DHT22;9958;33.196;-97.114;2022-12-18T08:40:15;0.40;99.90
19622;DHT22;9958;33.196;-97.114;2022-12-18T08:42:44;0.40;99.90
19622;DHT22;9958;33.196;-97.114;2022-12-18T08:45:31;0.30;99.90
19622;DHT22;9958;33.196;-97.114;2022-12-18T08:47:59;0.30;99.90
19622;DHT22;9958;33.196;-97.114;2022-12-18T08:50:27;0.30;99.90
19622;DHT22;9958;33.196;-97.114;2022-12-18T08:52:55;0.30;99.90
19622;DHT22;9958;33.196;-97.114;2022-12-18T08:55:24;0.30;99.90
19622;DHT22;9958;33.196;-97.114;2022-12-18T08:57:52;0.30;99.90
19622;DHT22;9958;33.196;-97.114;2022-12-18T09:00:21;0.30;99.90
19622;DHT22;9958;33.196;-97.114;2022-12-18T09:02:51;0.30;99.90
19622;DHT22;9958;33.196;-97.114;2022-12-18T09:05:19;0.30;99.90
19622;DHT22;9958;33.196;-97.114;2022-12-18T09:07:47;0.30;99.90
19622;DHT22;9958;33.196;-97.114;2022-12-18T09:10:16;0.30;99.90
19622;DHT22;9958;33.196;-97.114;2022-12-18T09:12:44;0.30;99.90
19622;DHT22;9958;33.196;-97.114;2022-12-18T09:15:12;0.30;99.90
19622;DHT22;9958;33.196;-97.114;2022-12-18T09:17:41;0.30;99.90
19622;DHT22;9958;33.196;-97.114;2022-12-18T09:20:11;0.20;99.90
19622;DHT22;9958;33.196;-97.114;2022-12-18T09:22:39;0.20;99.90
19622;DHT22;9958;33.196;-97.114;2022-12-18T09:25:07;0.20;99.90
19622;DHT22;9958;33.196;-97.114;2022-12-18T09:27:36;0.20;99.90
19622;DHT22;9958;33.196;-97.114;2022-12-18T09:30:06;0.20;99.90
19622;DHT22;9958;33.196;-97.114;2022-12-18T09:32:35;0.20;99.90
19622;DHT22;9958;33.196;-97.114;2022-12-18T09:35:04;0.20;99.90
19622;DHT22;9958;33.196;-97.114;2022-12-18T09:37:34;0.20;99.90
19622;DHT22;9958;33.196;-97.114;2022-12-18T09:40:02;0.20;99.90
19622;DHT22;9958;33.196;-97.114;2022-12-18T09:42:31;0.20;99.90
19622;DHT22;9958;33.196;-97.114;2022-12-18T09:45:00;0.20;99.90
19622;DHT22;9958;33.196;-97.114;2022-12-18T09:47:33;0.20;99.90
19622;DHT22;9958;33.196;-97.114;2022-12-18T09:50:05;0.10;99.90
19622;DHT22;9958;33.196;-97.114;2022-12-18T09:52:39;0.10;99.90
19622;DHT22;9958;33.196;-97.114;2022-12-18T09:55:14;0.10;99.90
19622;DHT22;9958;33.196;-97.114;2022-12-18T09:57:49;0.10;99.90
19622;DHT22;9958;33.196;-97.114;2022-12-18T10:00:20;0.10;99.90
19622;DHT22;9958;33.196;-97.114;2022-12-18T10:02:50;0.10;99.90
19622;DHT22;9958;33.196;-97.114;2022-12-18T10:05:27;0.10;99.90
19622;DHT22;9958;33.196;-97.114;2022-12-18T10:08:04;0.10;99.90
19622;DHT22;9958;33.196;-97.114;2022-12-18T10:10:39;0.10;99.90
19622;DHT22;9958;33.196;-97.114;2022-12-18T10:13:18;0.00;99.90
19622;DHT22;9958;33.196;-97.114;2022-12-18T10:15:59;0.00;99.90
19622;DHT22;9958;33.196;-97.114;2022-12-18T10:18:42;0.00;99.90
19622;DHT22;9958;33.196;-97.114;2022-12-18T10:21:20;-0.10;99.90
19622;DHT22;9958;33.196;-97.114;2022-12-18T10:23:55;-0.10;99.90
19622;DHT22;9958;33.196;-97.114;2022-12-18T10:26:27;-0.10;99.90
19622;DHT22;9958;33.196;-97.114;2022-12-18T10:28:56;-0.10;99.90
19622;DHT22;9958;33.196;-97.114;2022-12-18T10:31:25;-0.10;99.90
19622;DHT22;9958;33.196;-97.114;2022-12-18T10:33:54;-0.20;99.90
19622;DHT22;9958;33.196;-97.114;2022-12-18T10:36:23;-0.20;99.90
19622;DHT22;9958;33.196;-97.114;2022-12-18T10:38:54;-0.20;99.90
19622;DHT22;9958;33.196;-97.114;2022-12-18T10:41:41;-0.30;99.90
19622;DHT22;9958;33.196;-97.114;2022-12-18T10:44:17;-0.30;99.90
19622;DHT22;9958;33.196;-97.114;2022-12-18T10:46:48;-0.30;99.90
19622;DHT22;9958;33.196;-97.114;2022-12-18T10:49:22;-0.30;99.90
19622;DHT22;9958;33.196;-97.114;2022-12-18T10:51:51;-0.40;99.90
19622;DHT22;9958;33.196;-97.114;2022-12-18T10:54:34;-0.40;99.90
19622;DHT22;9958;33.196;-97.114;2022-12-18T10:57:16;-0.40;99.90
19622;DHT22;9958;33.196;-97.114;2022-12-18T10:59:51;-0.40;99.90
19622;DHT22;9958;33.196;-97.114;2022-12-18T11:02:33;-0.40;99.90
19622;DHT22;9958;33.196;-97.114;2022-12-18T11:05:26;-0.40;99.90
19622;DHT22;9958;33.196;-97.114;2022-12-18T11:07:52;-0.40;99.90
19622;DHT22;9958;33.196;-97.114;2022-12-18T11:10:28;-0.50;99.90
19622;DHT22;9958;33.196;-97.114;2022-12-18T11:13:10;-0.50;99.90
19622;DHT22;9958;33.196;-97.114;2022-12-18T11:15:40;-0.50;99.90
19622;DHT22;9958;33.196;-97.114;2022-12-18T11:18:17;-0.60;99.90
19622;DHT22;9958;33.196;-97.114;2022-12-18T11:20:58;-0.50;99.90
19622;DHT22;9958;33.196;-97.114;2022-12-18T11:23:27;-0.60;99.90
19622;DHT22;9958;33.196;-97.114;2022-12-18T11:26:00;-0.60;99.90
19622;DHT22;9958;33.196;-97.114;2022-12-18T11:28:37;-0.60;99.90
19622;DHT22;9958;33.196;-97.114;2022-12-18T11:31:22;-0.60;99.90
19622;DHT22;9958;33.196;-97.114;2022-12-18T11:34:09;-0.60;99.90
19622;DHT22;9958;33.196;-97.114;2022-12-18T11:36:41;-0.60;99.90
19622;DHT22;9958;33.196;-97.114;2022-12-18T11:39:15;-0.60;99.90
19622;DHT22;9958;33.196;-97.114;2022-12-18T11:41:51;-0.60;99.90
19622;DHT22;9958;33.196;-97.114;2022-12-18T11:44:45;-0.70;99.90
19622;DHT22;9958;33.196;-97.114;2022-12-18T11:47:22;-0.60;99.90
19622;DHT22;9958;33.196;-97.114;2022-12-18T11:49:56;-0.60;99.90
19622;DHT22;9958;33.196;-97.114;2022-12-18T11:52:33;-0.70;99.90
19622;DHT22;9958;33.196;-97.114;2022-12-18T11:55:11;-0.60;99.90
19622;DHT22;9958;33.196;-97.114;2022-12-18T11:57:50;-0.70;99.90
19622;DHT22;9958;33.196;-97.114;2022-12-18T12:00:23;-0.70;99.90
19622;DHT22;9958;33.196;-97.114;2022-12-18T12:06:05;-0.70;99.90
19622;DHT22;9958;33.196;-97.114;2022-12-18T12:08:42;-0.70;99.90
19622;DHT22;9958;33.196;-97.114;2022-12-18T12:11:17;-0.70;99.90
19622;DHT22;9958;33.196;-97.114;2022-12-18T12:13:57;-0.70;99.90
19622;DHT22;9958;33.196;-97.114;2022-12-18T12:16:32;-0.70;99.90
19622;DHT22;9958;33.196;-97.114;2022-12-18T12:19:13;-0.80;99.90
19622;DHT22;9958;33.196;-97.114;2022-12-18T12:21:50;-0.80;99.90
19622;DHT22;9958;33.196;-97.114;2022-12-18T12:24:30;-0.80;99.90
19622;DHT22;9958;33.196;-97.114;2022-12-18T12:27:06;-0.80;99.90
19622;DHT22;9958;33.196;-97.114;2022-12-18T12:29:50;-0.80;99.90
19622;DHT22;9958;33.196;-97.114;2022-12-18T12:32:31;-0.80;99.90
19622;DHT22;9958;33.196;-97.114;2022-12-18T12:35:12;-0.80;99.90
19622;DHT22;9958;33.196;-97.114;2022-12-18T12:37:49;-0.80;99.90
19622;DHT22;9958;33.196;-97.114;2022-12-18T12:40:19;-0.90;99.90
19622;DHT22;9958;33.196;-97.114;2022-12-18T12:42:51;-0.90;99.90
19622;DHT22;9958;33.196;-97.114;2022-12-18T12:45:44;-0.90;99.90
19622;DHT22;9958;33.196;-97.114;2022-12-18T12:48:20;-0.90;99.90
19622;DHT22;9958;33.196;-97.114;2022-12-18T12:50:53;-0.90;99.90
19622;DHT22;9958;33.196;-97.114;2022-12-18T12:53:26;-0.90;99.90
19622;DHT22;9958;33.196;-97.114;2022-12-18T12:55:56;-0.90;99.90
19622;DHT22;9958;33.196;-97.114;2022-12-18T12:58:32;-0.90;99.90
19622;DHT22;9958;33.196;-97.114;2022-12-18T13:01:13;-0.90;99.90
19622;DHT22;9958;33.196;-97.114;2022-12-18T13:03:48;-1.00;99.90
19622;DHT22;9958;33.196;-97.114;2022-12-18T13:06:29;-1.00;99.90
19622;DHT22;9958;33.196;-97.114;2022-12-18T13:09:01;-1.00;99.90
19622;DHT22;9958;33.196;-97.114;2022-12-18T13:11:36;-1.00;99.90
19622;DHT22;9958;33.196;-97.114;2022-12-18T13:14:24;-1.00;99.90
19622;DHT22;9958;33.196;-97.114;2022-12-18T13:17:17;-1.00;99.90
19622;DHT22;9958;33.196;-97.114;2022-12-18T13:20:04;-1.00;99.90
19622;DHT22;9958;33.196;-97.114;2022-12-18T13:22:36;-1.00;99.90
19622;DHT22;9958;33.196;-97.114;2022-12-18T13:25:29;-1.00;99.90
19622;DHT22;9958;33.196;-97.114;2022-12-18T13:28:09;-1.00;99.90
19622;DHT22;9958;33.196;-97.114;2022-12-18T13:30:47;-1.00;99.90
19622;DHT22;9958;33.196;-97.114;2022-12-18T13:33:47;-1.00;99.90
19622;DHT22;9958;33.196;-97.114;2022-12-18T13:36:27;-1.00;99.90
19622;DHT22;9958;33.196;-97.114;2022-12-18T13:42:36;-1.00;99.90
19622;DHT22;9958;33.196;-97.114;2022-12-18T13:45:44;-0.90;99.90
19622;DHT22;9958;33.196;-97.114;2022-12-18T13:48:19;-0.90;99.90
19622;DHT22;9958;33.196;-97.114;2022-12-18T13:50:59;-0.80;99.90
19622;DHT22;9958;33.196;-97.114;2022-12-18T13:53:31;-0.80;99.90
19622;DHT22;9958;33.196;-97.114;2022-12-18T13:56:02;-0.80;99.90
19622;DHT22;9958;33.196;-97.114;2022-12-18T13:58:31;-0.70;99.90
19622;DHT22;9958;33.196;-97.114;2022-12-18T14:00:59;-0.60;99.90
19622;DHT22;9958;33.196;-97.114;2022-12-18T14:03:31;-0.50;99.90
19622;DHT22;9958;33.196;-97.114;2022-12-18T14:06:07;-0.50;99.90
19622;DHT22;9958;33.196;-97.114;2022-12-18T14:08:39;-0.40;99.90
19622;DHT22;9958;33.196;-97.114;2022-12-18T14:11:10;-0.30;99.90
19622;DHT22;9958;33.196;-97.114;2022-12-18T14:13:46;-0.20;99.90
19622;DHT22;9958;33.196;-97.114;2022-12-18T14:16:16;-0.10;99.90
19622;DHT22;9958;33.196;-97.114;2022-12-18T14:18:46;-0.10;99.90
19622;DHT22;9958;33.196;-97.114;2022-12-18T14:21:22;0.00;99.90
19622;DHT22;9958;33.196;-97.114;2022-12-18T14:24:04;0.10;99.90
19622;DHT22;9958;33.196;-97.114;2022-12-18T14:26:33;0.20;99.90
19622;DHT22;9958;33.196;-97.114;2022-12-18T14:29:17;0.30;99.90
19622;DHT22;9958;33.196;-97.114;2022-12-18T14:31:46;0.30;99.90
19622;DHT22;9958;33.196;-97.114;2022-12-18T14:34:16;0.40;99.90
19622;DHT22;9958;33.196;-97.114;2022-12-18T14:36:53;0.50;99.90
19622;DHT22;9958;33.196;-97.114;2022-12-18T14:39:22;0.60;99.90
19622;DHT22;9958;33.196;-97.114;2022-12-18T14:41:52;0.80;99.90
19622;DHT22;9958;33.196;-97.114;2022-12-18T14:44:20;0.90;99.90
19622;DHT22;9958;33.196;-97.114;2022-12-18T14:46:50;1.00;99.90
19622;DHT22;9958;33.196;-97.114;2022-12-18T14:49:23;1.20;99.90
19622;DHT22;9958;33.196;-97.114;2022-12-18T14:51:54;1.30;99.90
19622;DHT22;9958;33.196;-97.114;2022-12-18T14:54:24;1.50;99.90
19622;DHT22;9958;33.196;-97.114;2022-12-18T14:56:58;1.60;99.90
19622;DHT22;9958;33.196;-97.114;2022-12-18T14:59:28;1.80;99.90
19622;DHT22;9958;33.196;-97.114;2022-12-18T15:02:02;2.00;99.90
19622;DHT22;9958;33.196;-97.114;2022-12-18T15:04:34;2.20;99.90
19622;DHT22;9958;33.196;-97.114;2022-12-18T15:07:12;2.40;99.90
19622;DHT22;9958;33.196;-97.114;2022-12-18T15:09:43;2.60;99.90
19622;DHT22;9958;33.196;-97.114;2022-12-18T15:12:26;2.70;99.90
19622;DHT22;9958;33.196;-97.114;2022-12-18T15:14:56;3.00;99.90
19622;DHT22;9958;33.196;-97.114;2022-12-18T15:17:25;3.10;99.90
19622;DHT22;9958;33.196;-97.114;2022-12-18T15:19:59;3.40;99.90
19622;DHT22;9958;33.196;-97.114;2022-12-18T15:22:32;3.60;99.90
19622;DHT22;9958;33.196;-97.114;2022-12-18T15:25:03;3.80;99.90
19622;DHT22;9958;33.196;-97.114;2022-12-18T15:27:33;3.90;99.90
19622;DHT22;9958;33.196;-97.114;2022-12-18T15:30:18;4.10;99.90
19622;DHT22;9958;33.196;-97.114;2022-12-18T15:32:48;4.30;99.90
19622;DHT22;9958;33.196;-97.114;2022-12-18T15:35:19;4.50;99.90
19622;DHT22;9958;33.196;-97.114;2022-12-18T15:37:50;4.60;99.90
19622;DHT22;9958;33.196;-97.114;2022-12-18T15:40:20;4.80;99.90
19622;DHT22;9958;33.196;-97.114;2022-12-18T15:42:50;4.90;99.90
19622;DHT22;9958;33.196;-97.114;2022-12-18T15:45:37;5.10;99.00
19622;DHT22;9958;33.196;-97.114;2022-12-18T15:48:16;5.30;99.10
19622;DHT22;9958;33.196;-97.114;2022-12-18T15:50:47;5.40;98.80
19622;DHT22;9958;33.196;-97.114;2022-12-18T15:53:17;5.60;98.70
19622;DHT22;9958;33.196;-97.114;2022-12-18T15:55:45;5.70;98.10
19622;DHT22;9958;33.196;-97.114;2022-12-18T15:58:30;5.80;98.10
19622;DHT22;9958;33.196;-97.114;2022-12-18T16:00:59;6.00;98.10
19622;DHT22;9958;33.196;-97.114;2022-12-18T16:03:28;6.10;97.80
19622;DHT22;9958;33.196;-97.114;2022-12-18T16:05:56;6.20;97.00